createdAt,value
2023-02-27T15:49:47.245Z,19.70
2023-02-27T15:52:13.861Z,20.10
2023-02-27T15:54:40.414Z,20.40
2023-02-27T15:57:07.549Z,20.40
2023-02-27T15:59:34.258Z,20.40
2023-02-27T16:02:04.022Z,20.40
2023-02-27T16:04:31.430Z,20.40
2023-02-27T16:06:58.071Z,20.50
2023-02-27T16:09:24.677Z,20.50
2023-02-27T16:11:51.283Z,20.60
2023-02-27T16:14:17.851Z,20.60
2023-02-27T16:16:44.615Z,20.70
2023-02-27T16:19:11.343Z,20.70
2023-02-27T16:21:38.184Z,20.70
2023-02-27T16:24:04.736Z,20.70
2023-02-27T16:26:31.985Z,20.70
2023-02-27T16:28:59.976Z,20.80
2023-02-27T16:31:26.735Z,20.70
2023-02-27T16:33:53.343Z,20.70
2023-02-27T16:36:20.291Z,20.70
2023-02-27T16:38:46.933Z,20.70
2023-02-27T16:41:15.866Z,20.70
2023-02-27T16:43:43.321Z,20.70
2023-02-27T16:46:10.160Z,20.70
2023-02-27T16:48:36.761Z,20.70
2023-02-27T16:51:03.792Z,20.70
2023-02-27T16:53:30.370Z,20.70
2023-02-27T16:55:57.142Z,20.70
2023-02-27T16:58:25.140Z,20.70
2023-02-27T17:00:51.765Z,20.70
2023-02-27T17:03:18.428Z,20.80
2023-02-27T17:05:45.195Z,20.70
2023-02-27T17:08:12.397Z,20.80
2023-02-27T17:10:39.115Z,20.80
2023-02-27T17:13:06.135Z,20.80
2023-02-27T17:15:32.812Z,20.80
2023-02-27T17:17:59.434Z,20.80
2023-02-27T17:20:27.999Z,20.80
2023-02-27T17:22:54.825Z,20.80
2023-02-27T17:25:21.717Z,20.80
2023-02-27T17:27:48.281Z,20.90
2023-02-27T17:30:14.887Z,20.80
2023-02-27T17:32:41.476Z,20.80
2023-02-27T17:35:08.849Z,20.90
2023-02-27T17:37:35.400Z,20.90
2023-02-27T17:40:04.329Z,20.90
2023-02-27T17:42:30.948Z,20.90
2023-02-27T17:44:57.885Z,20.90
2023-02-27T17:47:24.459Z,20.90
2023-02-27T17:49:51.162Z,20.90
2023-02-27T17:52:17.766Z,20.90
2023-02-27T17:54:44.454Z,20.90
2023-02-27T17:57:13.257Z,20.90
2023-02-27T17:59:40.412Z,20.90
2023-02-27T18:02:06.971Z,21.00
2023-02-27T18:04:33.546Z,21.00
2023-02-27T18:07:00.113Z,21.00
2023-02-27T18:09:26.852Z,21.00
2023-02-27T18:11:53.453Z,21.10
2023-02-27T18:14:20.037Z,21.10
2023-02-27T18:16:46.680Z,21.10
2023-02-27T18:19:14.323Z,21.10
2023-02-27T18:21:42.415Z,21.10
2023-02-27T18:24:09.130Z,21.20
2023-02-27T18:26:36.130Z,21.20
2023-02-27T18:29:03.121Z,21.20
2023-02-27T18:31:29.855Z,21.20
2023-02-27T18:33:56.496Z,21.20
2023-02-27T18:36:23.314Z,21.20
2023-02-27T18:38:49.889Z,21.20
2023-02-27T18:41:16.495Z,21.20
2023-02-27T18:43:43.122Z,21.10
2023-02-27T18:46:09.761Z,21.10
2023-02-27T18:48:36.440Z,21.10
2023-02-27T18:51:04.723Z,21.10
2023-02-27T18:53:31.346Z,21.10
2023-02-27T18:55:57.950Z,21.10
2023-02-27T18:58:24.550Z,21.10
2023-02-27T19:00:51.446Z,21.10
2023-02-27T19:03:18.700Z,21.10
2023-02-27T19:05:45.425Z,21.10
2023-02-27T19:08:12.040Z,21.10
2023-02-27T19:10:38.596Z,21.10
2023-02-27T19:13:05.473Z,21.10
2023-02-27T19:15:32.894Z,21.10
2023-02-27T19:17:59.528Z,21.10
2023-02-27T19:20:26.165Z,21.00
2023-02-27T19:22:53.501Z,21.00
2023-02-27T19:25:20.096Z,21.00
2023-02-27T19:27:46.830Z,21.00
2023-02-27T19:30:13.509Z,21.00
2023-02-27T19:32:40.116Z,21.00
2023-02-27T19:35:06.741Z,21.00
2023-02-27T19:37:33.329Z,21.00
2023-02-27T19:39:59.943Z,21.00
2023-02-27T19:42:26.551Z,21.00
2023-02-27T19:44:53.147Z,21.00
2023-02-27T19:47:19.778Z,21.00
2023-02-27T19:49:46.944Z,20.90
2023-02-27T19:52:13.568Z,21.00
2023-02-27T19:54:40.904Z,20.90
2023-02-27T19:57:07.671Z,21.00
2023-02-27T19:59:34.255Z,20.90
2023-02-27T20:02:00.846Z,20.90
2023-02-27T20:04:27.697Z,20.90
2023-02-27T20:06:54.529Z,20.90
2023-02-27T20:09:21.121Z,20.90
2023-02-27T20:11:47.714Z,20.90
2023-02-27T20:14:14.327Z,20.90
